Time;durP1;ratioP1;P1;durP2;ratioP2;P2;SDS_P1;SDS_P2;PMS_P1;PMS_P2;Temp;Humidity;BMP_temperature;BMP_pressure;BME280_temperature;BME280_humidity;BME280_pressure;Samples;Min_cycle;Max_cycle;Signal;HPM_P1;HPM_P2
2023/04/19 00:01:54;;;;;;;;;;;;;;;;;;5096870;28;19915;-68
2023/04/19 00:04:20;;;;;;;;;;;;;;;;;;5097083;28;19908;-68
2023/04/19 00:06:46;;;;;;;;;;;;;;;;;;5096226;28;20064;-68
2023/04/19 00:09:12;;;;;;;;;;;;;;;;;;5096745;28;19916;-68
2023/04/19 00:11:38;;;;;;;;;;;;;;;;;;5096782;28;19912;-68
2023/04/19 00:14:04;;;;;;;;;;;;;;;;;;5096345;28;19999;-69
2023/04/19 00:16:30;;;;;;;;;;;;;;;;;;5097256;28;19908;-69
2023/04/19 00:18:56;;;;;;;;;;;;;;;;;;5096258;28;19912;-68
2023/04/19 00:21:22;;;;;;;;;;;;;;;;;;5095828;28;19934;-68
2023/04/19 00:23:48;;;;;;;;;;;;;;;;;;5096442;28;19918;-68
2023/04/19 00:26:17;;;;;;;;;;;;;;;;;;5096645;28;19909;-68
2023/04/19 00:28:43;;;;;;;;;;;;;;;;;;5096099;28;19923;-69
2023/04/19 00:31:09;;;;;;;;;;;;;;;;;;5096200;28;19908;-69
2023/04/19 00:33:35;;;;;;;;;;;;;;;;;;5096247;28;19908;-68
2023/04/19 00:36:01;;;;;;;;;;;;;;;;;;5095737;28;20007;-68
2023/04/19 00:38:27;;;;;;;;;;;;;;;;;;5077908;28;19908;-68
2023/04/19 00:40:53;;;;;;;;;;;;;;;;;;5077886;28;19908;-68
2023/04/19 00:43:19;;;;;;;;;;;;;;;;;;5095625;28;19924;-68
2023/04/19 00:45:44;;;;;;;;;;;;;;;;;;5095983;28;19915;-68
2023/04/19 00:48:10;;;;;;;;;;;;;;;;;;5095690;28;19920;-68
2023/04/19 00:50:36;;;;;;;;;;;;;;;;;;5095449;28;19908;-68
2023/04/19 00:53:02;;;;;;;;;;;;;;;;;;5095863;28;20023;-68
2023/04/19 00:55:28;;;;;;;;;;;;;;;;;;5095405;28;19916;-68
2023/04/19 00:57:54;;;;;;;;;;;;;;;;;;5095632;28;19908;-68
2023/04/19 01:00:20;;;;;;;;;;;;;;;;;;5095630;28;20020;-68
2023/04/19 01:02:46;;;;;;;;;;;;;;;;;;5095396;28;19912;-69
2023/04/19 01:05:12;;;;;;;;;;;;;;;;;;5095582;28;19909;-68
2023/04/19 01:07:38;;;;;;;;;;;;;;;;;;5095493;28;20040;-68
2023/04/19 01:10:04;;;;;;;;;;;;;;;;;;5076930;28;19917;-68
2023/04/19 01:12:30;;;;;;;;;;;;;;;;;;5095579;28;19955;-69
2023/04/19 01:14:56;;;;;;;;;;;;;;;;;;5095370;28;19915;-67
2023/04/19 01:17:22;;;;;;;;;;;;;;;;;;5094825;28;19911;-67
2023/04/19 01:19:48;;;;;;;;;;;;;;;;;;5095602;28;19943;-68
2023/04/19 01:22:14;;;;;;;;;;;;;;;;;;5095218;28;20291;-68
2023/04/19 01:24:40;;;;;;;;;;;;;;;;;;5094860;28;19908;-68
2023/04/19 01:27:06;;;;;;;;;;;;;;;;;;5095031;28;19995;-69
2023/04/19 01:29:32;;;;;;;;;;;;;;;;;;5095312;28;19919;-68
2023/04/19 01:31:58;;;;;;;;;;;;;;;;;;5093785;28;19916;-69
2023/04/19 01:34:24;;;;;;;;;;;;;;;;;;5094971;28;20011;-68
2023/04/19 01:36:50;;;;;;;;;;;;;;;;;;5094988;28;19908;-68
2023/04/19 01:39:16;;;;;;;;;;;;;;;;;;5094511;28;19961;-68
2023/04/19 01:41:42;;;;;;;;;;;;;;;;;;5094826;28;19991;-69
2023/04/19 01:44:08;;;;;;;;;;;;;;;;;;5095099;28;19912;-69
2023/04/19 01:46:35;;;;;;;;;;;;;;;;;;5094158;28;19931;-68
2023/04/19 01:49:01;;;;;;;;;;;;;;;;;;5094874;28;19909;-69
2023/04/19 01:51:27;;;;;;;;;;;;;;;;;;5094815;28;19915;-68
2023/04/19 01:53:53;;;;;;;;;;;;;;;;;;5076102;28;19908;-68
2023/04/19 01:56:19;;;;;;;;;;;;;;;;;;5094645;28;19933;-69
2023/04/19 01:58:45;;;;;;;;;;;;;;;;;;5094278;28;19917;-68
2023/04/19 02:01:11;;;;;;;;;;;;;;;;;;5094583;28;19909;-69
2023/04/19 02:03:37;;;;;;;;;;;;;;;;;;5094550;28;19908;-68
2023/04/19 02:06:03;;;;;;;;;;;;;;;;;;5094072;28;20058;-68
2023/04/19 02:08:29;;;;;;;;;;;;;;;;;;5094324;28;19916;-69
2023/04/19 02:10:55;;;;;;;;;;;;;;;;;;5094403;28;19908;-68
2023/04/19 02:13:21;;;;;;;;;;;;;;;;;;5093937;28;19912;-69
2023/04/19 02:15:48;;;;;;;;;;;;;;;;;;5094359;28;19931;-69
2023/04/19 02:18:16;;;;;;;;;;;;;;;;;;5094281;28;19936;-68
2023/04/19 02:20:42;;;;;;;;;;;;;;;;;;5093832;28;19915;-68
2023/04/19 02:23:08;;;;;;;;;;;;;;;;;;5094290;28;20284;-68
2023/04/19 02:25:34;;;;;;;;;;;;;;;;;;5094199;28;20313;-68
2023/04/19 02:28:00;;;;;;;;;;;;;;;;;;5093875;28;20425;-69
2023/04/19 02:30:26;;;;;;;;;;;;;;;;;;5094059;28;19908;-70
2023/04/19 02:32:53;;;;;;;;;;;;;;;;;;5094084;28;19914;-69
2023/04/19 02:35:19;;;;;;;;;;;;;;;;;;5075459;28;20004;-69
2023/04/19 02:37:45;;;;;;;;;;;;;;;;;;5094037;28;20003;-69
2023/04/19 02:40:11;;;;;;;;;;;;;;;;;;5075936;28;19908;-68
2023/04/19 02:42:37;;;;;;;;;;;;;;;;;;5093336;28;19978;-69
2023/04/19 02:45:03;;;;;;;;;;;;;;;;;;5093896;28;19930;-68
2023/04/19 02:47:29;;;;;;;;;;;;;;;;;;5072142;28;19928;-68
2023/04/19 02:49:55;;;;;;;;;;;;;;;;;;5073316;28;20387;-68
2023/04/19 02:52:21;;;;;;;;;;;;;;;;;;5073768;28;20353;-68
2023/04/19 02:54:47;;;;;;;;;;;;;;;;;;5072360;28;19908;-68
2023/04/19 02:57:13;;;;;;;;;;;;;;;;;;5073267;28;19958;-68
2023/04/19 02:59:38;;;;;;;;;;;;;;;;;;5073561;28;20296;-68
2023/04/19 03:02:04;;;;;;;;;;;;;;;;;;5073284;28;20007;-68
2023/04/19 03:04:30;;;;;;;;;;;;;;;;;;5073588;28;19908;-69
2023/04/19 03:06:56;;;;;;;;;;;;;;;;;;5073685;28;20364;-69
2023/04/19 03:09:22;;;;;;;;;;;;;;;;;;5071960;28;20380;-69
2023/04/19 03:11:48;;;;;;;;;;;;;;;;;;5073526;28;19912;-69
2023/04/19 03:14:14;;;;;;;;;;;;;;;;;;5073542;28;19908;-69
2023/04/19 03:16:40;;;;;;;;;;;;;;;;;;5071786;28;19962;-68
2023/04/19 03:19:06;;;;;;;;;;;;;;;;;;5073316;28;19908;-68
2023/04/19 03:21:32;;;;;;;;;;;;;;;;;;5073351;28;19912;-68
2023/04/19 03:23:58;;;;;;;;;;;;;;;;;;5072993;28;20027;-68
2023/04/19 03:26:24;;;;;;;;;;;;;;;;;;5073551;28;19908;-68
2023/04/19 03:28:50;;;;;;;;;;;;;;;;;;5071946;28;20266;-68
2023/04/19 03:31:16;;;;;;;;;;;;;;;;;;5073033;28;19947;-68
2023/04/19 03:33:42;;;;;;;;;;;;;;;;;;5073176;28;19960;-68
2023/04/19 03:36:08;;;;;;;;;;;;;;;;;;5073223;28;19912;-68
2023/04/19 03:38:34;;;;;;;;;;;;;;;;;;5072814;28;19908;-68
2023/04/19 03:41:00;;;;;;;;;;;;;;;;;;5073261;28;19948;-68
2023/04/19 03:43:26;;;;;;;;;;;;;;;;;;5071890;28;19916;-67
2023/04/19 03:45:52;;;;;;;;;;;;;;;;;;5072900;28;19974;-68
2023/04/19 03:48:18;;;;;;;;;;;;;;;;;;5090058;28;20304;-68
2023/04/19 03:50:44;;;;;;;;;;;;;;;;;;5093325;28;19908;-67
2023/04/19 03:53:10;;;;;;;;;;;;;;;;;;5074771;28;19999;-68
2023/04/19 03:55:36;;;;;;;;;;;;;;;;;;5095938;28;20422;-67
2023/04/19 03:58:02;;;;;;;;;;;;;;;;;;5096887;28;19907;-68
2023/04/19 04:00:28;;;;;;;;;;;;;;;;;;5096596;28;20443;-68
2023/04/19 04:02:53;;;;;;;;;;;;;;;;;;5096794;28;20352;-68
2023/04/19 04:05:19;;;;;;;;;;;;;;;;;;5096381;28;20433;-68
2023/04/19 04:07:45;;;;;;;;;;;;;;;;;;5078423;28;20432;-68
2023/04/19 04:10:11;;;;;;;;;;;;;;;;;;5096741;28;19909;-68
2023/04/19 04:12:37;;;;;;;;;;;;;;;;;;5096150;28;19908;-69
2023/04/19 04:15:04;;;;;;;;;;;;;;;;;;5096578;28;20360;-68
2023/04/19 04:17:30;;;;;;;;;;;;;;;;;;5096560;28;19908;-68
2023/04/19 04:19:56;;;;;;;;;;;;;;;;;;5096062;28;20269;-68
2023/04/19 04:22:21;;;;;;;;;;;;;;;;;;5096536;28;20340;-68
2023/04/19 04:24:48;;;;;;;;;;;;;;;;;;5096552;28;19919;-68
2023/04/19 04:27:19;;;;;;;;;;;;;;;;;;5095924;28;19960;-68
2023/04/19 04:29:44;;;;;;;;;;;;;;;;;;5096411;28;19908;-69
2023/04/19 04:32:13;;;;;;;;;;;;;;;;;;5096281;28;19953;-69
2023/04/19 04:34:39;;;;;;;;;;;;;;;;;;5077688;28;19908;-68
2023/04/19 04:37:07;;;;;;;;;;;;;;;;;;5096194;28;19916;-68
2023/04/19 04:39:37;;;;;;;;;;;;;;;;;;5096124;28;19950;-68
2023/04/19 04:42:04;;;;;;;;;;;;;;;;;;5095600;28;19915;-68
2023/04/19 04:44:30;;;;;;;;;;;;;;;;;;5096268;28;19908;-67
2023/04/19 04:46:56;;;;;;;;;;;;;;;;;;5095565;28;20053;-68
2023/04/19 04:49:22;;;;;;;;;;;;;;;;;;5095366;28;19908;-67
2023/04/19 04:51:48;;;;;;;;;;;;;;;;;;5095963;28;19927;-66
2023/04/19 04:54:14;;;;;;;;;;;;;;;;;;5096043;28;19908;-68
2023/04/19 04:56:40;;;;;;;;;;;;;;;;;;5077173;28;19912;-68
2023/04/19 04:59:06;;;;;;;;;;;;;;;;;;5095672;28;19962;-68
2023/04/19 05:01:32;;;;;;;;;;;;;;;;;;5095806;28;20272;-67
2023/04/19 05:03:58;;;;;;;;;;;;;;;;;;5077372;28;19916;-68
2023/04/19 05:06:25;;;;;;;;;;;;;;;;;;5077454;28;20280;-68
2023/04/19 05:08:51;;;;;;;;;;;;;;;;;;5095175;28;20019;-68
2023/04/19 05:11:17;;;;;;;;;;;;;;;;;;5095511;28;19952;-69
2023/04/19 05:13:43;;;;;;;;;;;;;;;;;;5095413;28;19908;-68
2023/04/19 05:16:09;;;;;;;;;;;;;;;;;;5094906;28;19961;-69
2023/04/19 05:18:35;;;;;;;;;;;;;;;;;;5095268;28;19915;-68
2023/04/19 05:21:01;;;;;;;;;;;;;;;;;;5095055;28;19908;-69
2023/04/19 05:23:27;;;;;;;;;;;;;;;;;;5094830;28;19988;-68
2023/04/19 05:25:53;;;;;;;;;;;;;;;;;;5094889;28;19916;-67
2023/04/19 05:28:19;;;;;;;;;;;;;;;;;;5094735;28;19916;-70
2023/04/19 05:30:45;;;;;;;;;;;;;;;;;;5086024;28;20436;-69
2023/04/19 05:33:11;;;;;;;;;;;;;;;;;;5075203;28;19912;-69
2023/04/19 05:35:37;;;;;;;;;;;;;;;;;;5075995;28;19912;-69
2023/04/19 05:38:03;;;;;;;;;;;;;;;;;;5079975;28;20242;-68
2023/04/19 05:40:29;;;;;;;;;;;;;;;;;;5091226;28;19969;-69
2023/04/19 05:42:55;;;;;;;;;;;;;;;;;;5073509;28;19908;-66
2023/04/19 05:45:21;;;;;;;;;;;;;;;;;;5091514;28;19916;-67
2023/04/19 05:47:47;;;;;;;;;;;;;;;;;;5093330;28;19920;-67
2023/04/19 05:50:16;;;;;;;;;;;;;;;;;;5092068;28;19909;-67
2023/04/19 05:52:42;;;;;;;;;;;;;;;;;;5077366;28;19919;-66
2023/04/19 05:55:08;;;;;;;;;;;;;;;;;;5075367;28;19915;-67
2023/04/19 05:57:34;;;;;;;;;;;;;;;;;;5073386;28;19908;-66
2023/04/19 06:00:00;;;;;;;;;;;;;;;;;;5060013;28;19920;-66
2023/04/19 06:02:26;;;;;;;;;;;;;;;;;;5073524;28;19908;-67
2023/04/19 06:04:52;;;;;;;;;;;;;;;;;;5080802;28;19912;-65
2023/04/19 06:07:18;;;;;;;;;;;;;;;;;;5091324;28;19971;-65
2023/04/19 06:09:44;;;;;;;;;;;;;;;;;;5091283;28;20469;-65
2023/04/19 06:12:10;;;;;;;;;;;;;;;;;;5088873;28;19915;-65
2023/04/19 06:14:36;;;;;;;;;;;;;;;;;;5092005;28;19908;-67
2023/04/19 06:17:02;;;;;;;;;;;;;;;;;;5079958;28;19974;-68
2023/04/19 06:19:28;;;;;;;;;;;;;;;;;;5077369;28;20001;-67
2023/04/19 06:21:54;;;;;;;;;;;;;;;;;;5090470;28;19908;-65
2023/04/19 06:24:22;;;;;;;;;;;;;;;;;;5068147;28;19912;-65
2023/04/19 06:26:48;;;;;;;;;;;;;;;;;;5092619;28;20277;-65
2023/04/19 06:29:14;;;;;;;;;;;;;;;;;;5091792;28;20304;-67
2023/04/19 06:31:40;;;;;;;;;;;;;;;;;;5091079;28;19915;-65
2023/04/19 06:34:06;;;;;;;;;;;;;;;;;;5091289;28;20365;-65
2023/04/19 06:36:32;;;;;;;;;;;;;;;;;;5092932;28;19946;-65
2023/04/19 06:38:58;;;;;;;;;;;;;;;;;;5092742;28;19916;-66
2023/04/19 06:41:24;;;;;;;;;;;;;;;;;;5092515;28;19912;-66
2023/04/19 06:43:50;;;;;;;;;;;;;;;;;;5092377;28;20011;-67
2023/04/19 06:46:17;;;;;;;;;;;;;;;;;;5073603;28;20272;-67
2023/04/19 06:48:43;;;;;;;;;;;;;;;;;;5091764;28;19939;-66
2023/04/19 06:51:08;;;;;;;;;;;;;;;;;;5091455;28;19908;-66
2023/04/19 06:53:35;;;;;;;;;;;;;;;;;;5092417;28;19908;-66
2023/04/19 06:56:01;;;;;;;;;;;;;;;;;;5074112;28;19912;-66
2023/04/19 06:58:27;;;;;;;;;;;;;;;;;;5092481;28;20002;-65
2023/04/19 07:00:53;;;;;;;;;;;;;;;;;;5092588;28;20068;-64
2023/04/19 07:03:19;;;;;;;;;;;;;;;;;;5092290;28;19919;-67
2023/04/19 07:05:45;;;;;;;;;;;;;;;;;;5092460;28;19912;-66
2023/04/19 07:08:11;;;;;;;;;;;;;;;;;;5091916;28;19916;-66
2023/04/19 07:10:36;;;;;;;;;;;;;;;;;;5086862;28;19956;-66
2023/04/19 07:13:02;;;;;;;;;;;;;;;;;;5083236;28;19939;-66
2023/04/19 07:15:28;;;;;;;;;;;;;;;;;;5087739;28;19912;-67
2023/04/19 07:17:54;;;;;;;;;;;;;;;;;;5091707;28;19912;-65
2023/04/19 07:20:20;;;;;;;;;;;;;;;;;;5090089;28;20288;-66
2023/04/19 07:22:46;;;;;;;;;;;;;;;;;;5085600;28;20003;-67
2023/04/19 07:25:12;;;;;;;;;;;;;;;;;;5089392;28;19909;-67
2023/04/19 07:27:38;;;;;;;;;;;;;;;;;;5089162;28;19954;-66
2023/04/19 07:30:07;;;;;;;;;;;;;;;;;;5091137;28;19942;-65
2023/04/19 07:32:35;;;;;;;;;;;;;;;;;;5095457;28;19915;-66
2023/04/19 07:35:01;;;;;;;;;;;;;;;;;;5094829;28;19911;-66
2023/04/19 07:37:27;;;;;;;;;;;;;;;;;;5094380;28;20332;-64
2023/04/19 07:39:53;;;;;;;;;;;;;;;;;;5095390;28;20382;-65
2023/04/19 07:42:19;;;;;;;;;;;;;;;;;;5094270;28;19912;-67
2023/04/19 07:44:45;;;;;;;;;;;;;;;;;;5094728;28;20376;-65
2023/04/19 07:47:12;;;;;;;;;;;;;;;;;;5094310;28;19920;-65
2023/04/19 07:49:39;;;;;;;;;;;;;;;;;;5094973;28;19916;-67
2023/04/19 07:52:05;;;;;;;;;;;;;;;;;;5095229;28;19957;-66
2023/04/19 07:54:31;;;;;;;;;;;;;;;;;;5076762;28;19911;-66
2023/04/19 07:56:58;;;;;;;;;;;;;;;;;;5094762;28;19978;-67
2023/04/19 07:59:24;;;;;;;;;;;;;;;;;;5076471;28;20383;-65
2023/04/19 08:01:50;;;;;;;;;;;;;;;;;;5095333;28;19961;-68
2023/04/19 08:04:18;;;;;;;;;;;;;;;;;;5077150;28;19915;-68
2023/04/19 08:06:44;;;;;;;;;;;;;;;;;;5074503;28;20041;-68
2023/04/19 08:09:10;;;;;;;;;;;;;;;;;;5090684;28;20015;-72
2023/04/19 08:13:39;;;;;;;;;;;;;;;;;;5127037;27;19919;-67
2023/04/19 08:17:20;;;;;;;;;;;;;;;;;;5109717;27;19912;-67
2023/04/19 08:19:46;;;;;;;;;;;;;;;;;;5108465;28;20372;-67
2023/04/19 08:23:30;;;;;;;;;;;;;;;;;;5087479;27;19916;-67
2023/04/19 08:26:52;;;;;;;;;;;;;;;;;;5087188;27;19916;-68
2023/04/19 08:29:18;;;;;;;;;;;;;;;;;;5085618;28;19919;-66
2023/04/19 08:31:44;;;;;;;;;;;;;;;;;;5083010;28;19912;-68
2023/04/19 08:35:07;;;;;;;;;;;;;;;;;;5083730;27;19916;-67
2023/04/19 08:39:09;;;;;;;;;;;;;;;;;;5150188;27;19918;-66
2023/04/19 08:46:27;;;;;;;;;;;;;;;;;;5086778;27;19923;-67
2023/04/19 08:50:48;;;;;;;;;;;;;;;;;;5087579;27;20295;-66
2023/04/19 08:53:15;;;;;;;;;;;;;;;;;;5074853;28;20408;-68
2023/04/19 08:55:41;;;;;;;;;;;;;;;;;;5064002;28;19916;-69
2023/04/19 08:59:58;;;;;;;;;;;;;;;;;;5059421;27;2135496;-67
2023/04/19 09:02:24;;;;;;;;;;;;;;;;;;5125897;28;19911;-68
2023/04/19 09:05:10;;;;;;;;;;;;;;;;;;5086743;27;19922;-67
2023/04/19 09:07:36;;;;;;;;;;;;;;;;;;5087489;28;19924;-67
2023/04/19 09:10:02;;;;;;;;;;;;;;;;;;5087538;28;19916;-66
2023/04/19 09:12:28;;;;;;;;;;;;;;;;;;5085387;28;19914;-67
2023/04/19 09:14:54;;;;;;;;;;;;;;;;;;5086118;28;19908;-67
2023/04/19 09:17:20;;;;;;;;;;;;;;;;;;5086660;28;19951;-65
2023/04/19 09:19:46;;;;;;;;;;;;;;;;;;5087653;28;19954;-66
2023/04/19 09:22:12;;;;;;;;;;;;;;;;;;5083847;28;20003;-66
2023/04/19 09:24:38;;;;;;;;;;;;;;;;;;5085337;28;19959;-66
2023/04/19 09:27:10;;;;;;;;;;;;;;;;;;5088565;28;20368;-64
2023/04/19 09:29:37;;;;;;;;;;;;;;;;;;5084312;28;19915;-66
2023/04/19 09:32:06;;;;;;;;;;;;;;;;;;5087799;28;19909;-64
2023/04/19 09:34:32;;;;;;;;;;;;;;;;;;5087232;28;19951;-65
2023/04/19 09:44:39;;;;;;;;;;;;;;;;;;5127196;28;19959;-64
2023/04/19 09:47:05;;;;;;;;;;;;;;;;;;5129637;28;19916;-66
2023/04/19 09:49:31;;;;;;;;;;;;;;;;;;5125781;28;19969;-66
2023/04/19 09:54:42;;;;;;;;;;;;;;;;;;5066698;28;19923;-65
2023/04/19 10:01:21;;;;;;;;;;;;;;;;;;5086034;27;19918;-66
2023/04/19 10:03:47;;;;;;;;;;;;;;;;;;5089311;28;19922;-66
2023/04/19 10:06:13;;;;;;;;;;;;;;;;;;5089337;28;19908;-66
2023/04/19 10:08:39;;;;;;;;;;;;;;;;;;5089371;28;19916;-68
2023/04/19 10:11:05;;;;;;;;;;;;;;;;;;5088829;28;19909;-67
2023/04/19 10:13:31;;;;;;;;;;;;;;;;;;5087353;28;20434;-66
2023/04/19 10:15:57;;;;;;;;;;;;;;;;;;5088800;28;20369;-68
2023/04/19 10:18:23;;;;;;;;;;;;;;;;;;5088133;28;20690;-67
2023/04/19 10:20:49;;;;;;;;;;;;;;;;;;5086648;28;20015;-67
2023/04/19 10:23:15;;;;;;;;;;;;;;;;;;5087245;28;20012;-66
2023/04/19 10:25:40;;;;;;;;;;;;;;;;;;5084769;28;19916;-66
2023/04/19 10:28:06;;;;;;;;;;;;;;;;;;5086846;28;19961;-67
2023/04/19 10:30:32;;;;;;;;;;;;;;;;;;5085930;28;19936;-65
2023/04/19 10:33:48;;;;;;;;;;;;;;;;;;5146763;27;20499;-65
2023/04/19 10:36:16;;;;;;;;;;;;;;;;;;5131492;27;19918;-67
2023/04/19 10:38:43;;;;;;;;;;;;;;;;;;5148711;27;19907;-65
2023/04/19 10:42:08;;;;;;;;;;;;;;;;;;5086164;27;20340;-66
2023/04/19 10:45:03;;;;;;;;;;;;;;;;;;5086051;28;19916;-68
2023/04/19 10:47:29;;;;;;;;;;;;;;;;;;5084969;28;19916;-69
2023/04/19 10:50:24;;;;;;;;;;;;;;;;;;5108967;27;19919;-67
2023/04/19 10:56:12;;;;;;;;;;;;;;;;;;5126252;27;19930;-69
2023/04/19 11:00:35;;;;;;;;;;;;;;;;;;5088895;27;19975;-67
2023/04/19 11:04:28;;;;;;;;;;;;;;;;;;5151578;27;20023;-67
2023/04/19 11:06:55;;;;;;;;;;;;;;;;;;5150716;27;19974;-67
2023/04/19 11:12:00;;;;;;;;;;;;;;;;;;5091401;27;19925;-65
2023/04/19 11:14:26;;;;;;;;;;;;;;;;;;5089419;28;20377;-67
2023/04/19 11:16:52;;;;;;;;;;;;;;;;;;5089042;28;19954;-66
2023/04/19 11:24:10;;;;;;;;;;;;;;;;;;5151646;27;20302;-67
2023/04/19 11:26:36;;;;;;;;;;;;;;;;;;5151563;27;19918;-67
2023/04/19 11:29:02;;;;;;;;;;;;;;;;;;5148009;27;19912;-66
2023/04/19 11:31:28;;;;;;;;;;;;;;;;;;5149677;27;19922;-66
2023/04/19 11:33:54;;;;;;;;;;;;;;;;;;5149975;27;19907;-66
2023/04/19 11:36:21;;;;;;;;;;;;;;;;;;5132896;27;19911;-67
2023/04/19 11:42:31;;;;;;;;;;;;;;;;;;5149340;27;19912;-68
2023/04/19 11:46:41;;;;;;;;;;;;;;;;;;5087190;27;19912;-67
2023/04/19 11:49:12;;;;;;;;;;;;;;;;;;5086230;28;19920;-66
2023/04/19 11:51:38;;;;;;;;;;;;;;;;;;5087061;28;19924;-65
2023/04/19 11:54:04;;;;;;;;;;;;;;;;;;5086741;28;20327;-65
2023/04/19 11:56:30;;;;;;;;;;;;;;;;;;5087719;28;20475;-65
2023/04/19 11:58:56;;;;;;;;;;;;;;;;;;5086949;28;20323;-65
2023/04/19 12:01:24;;;;;;;;;;;;;;;;;;5087564;28;20265;-66
2023/04/19 12:03:49;;;;;;;;;;;;;;;;;;5084734;28;19912;-66
2023/04/19 12:10:03;;;;;;;;;;;;;;;;;;5109521;27;20295;-66
2023/04/19 12:12:29;;;;;;;;;;;;;;;;;;5107271;28;19912;-65
2023/04/19 12:14:55;;;;;;;;;;;;;;;;;;5109087;28;20330;-66
2023/04/19 12:17:21;;;;;;;;;;;;;;;;;;5117757;28;20291;-69
2023/04/19 12:21:08;;;;;;;;;;;;;;;;;;5086058;27;19922;-67
2023/04/19 12:23:34;;;;;;;;;;;;;;;;;;5084760;28;19912;-65
2023/04/19 12:27:32;;;;;;;;;;;;;;;;;;5109500;27;19912;-65
2023/04/19 12:31:23;;;;;;;;;;;;;;;;;;5087769;27;20575;-67
2023/04/19 12:33:49;;;;;;;;;;;;;;;;;;5088242;28;20007;-65
2023/04/19 12:39:27;;;;;;;;;;;;;;;;;;5089264;27;19916;-66
2023/04/19 12:41:53;;;;;;;;;;;;;;;;;;5089153;28;20352;-69
2023/04/19 12:44:19;;;;;;;;;;;;;;;;;;5079396;28;19951;-65
2023/04/19 12:46:45;;;;;;;;;;;;;;;;;;5076628;28;19920;-65
2023/04/19 12:51:41;;;;;;;;;;;;;;;;;;5087576;27;19917;-67
2023/04/19 12:54:07;;;;;;;;;;;;;;;;;;5087648;28;19999;-66
2023/04/19 12:56:33;;;;;;;;;;;;;;;;;;5086768;28;19995;-66
2023/04/19 12:58:59;;;;;;;;;;;;;;;;;;5087778;28;19919;-66
2023/04/19 13:01:25;;;;;;;;;;;;;;;;;;5087377;28;19965;-68
2023/04/19 13:03:51;;;;;;;;;;;;;;;;;;5088337;28;20334;-66
2023/04/19 13:06:17;;;;;;;;;;;;;;;;;;5089254;28;19908;-68
2023/04/19 13:09:42;;;;;;;;;;;;;;;;;;5089085;27;19917;-66
2023/04/19 13:12:08;;;;;;;;;;;;;;;;;;5088907;28;20346;-68
2023/04/19 13:14:33;;;;;;;;;;;;;;;;;;5086136;28;19916;-69
2023/04/19 13:17:00;;;;;;;;;;;;;;;;;;5089158;28;19914;-68
2023/04/19 13:19:26;;;;;;;;;;;;;;;;;;5089287;28;19940;-68
2023/04/19 13:21:51;;;;;;;;;;;;;;;;;;5089908;28;20385;-69
2023/04/19 13:24:17;;;;;;;;;;;;;;;;;;5091035;28;19908;-70
2023/04/19 13:28:19;;;;;;;;;;;;;;;;;;5091482;27;19939;-69
2023/04/19 13:30:45;;;;;;;;;;;;;;;;;;5091923;28;20432;-68
2023/04/19 13:33:11;;;;;;;;;;;;;;;;;;5091193;28;19959;-69
2023/04/19 13:35:37;;;;;;;;;;;;;;;;;;5089569;28;19908;-69
2023/04/19 13:38:03;;;;;;;;;;;;;;;;;;5089854;28;19908;-68
2023/04/19 13:40:29;;;;;;;;;;;;;;;;;;5091376;28;20008;-69
2023/04/19 13:42:55;;;;;;;;;;;;;;;;;;5090874;28;19909;-69
2023/04/19 13:45:21;;;;;;;;;;;;;;;;;;5089232;28;19908;-68
2023/04/19 13:47:47;;;;;;;;;;;;;;;;;;5088888;28;19923;-68
2023/04/19 13:50:13;;;;;;;;;;;;;;;;;;5088766;28;19931;-67
2023/04/19 13:52:39;;;;;;;;;;;;;;;;;;5090797;28;19945;-69
2023/04/19 13:55:05;;;;;;;;;;;;;;;;;;5090913;28;19908;-68
2023/04/19 13:57:31;;;;;;;;;;;;;;;;;;5090448;28;20373;-68
2023/04/19 13:59:57;;;;;;;;;;;;;;;;;;5090776;28;20276;-68
2023/04/19 14:02:23;;;;;;;;;;;;;;;;;;5090730;28;20339;-68
2023/04/19 14:04:49;;;;;;;;;;;;;;;;;;5090221;28;20261;-68
2023/04/19 14:07:15;;;;;;;;;;;;;;;;;;5090563;28;19917;-68
2023/04/19 14:09:41;;;;;;;;;;;;;;;;;;5089192;28;19916;-69
2023/04/19 14:12:08;;;;;;;;;;;;;;;;;;5090220;28;19999;-68
2023/04/19 14:14:34;;;;;;;;;;;;;;;;;;5090574;28;19909;-68
2023/04/19 14:17:00;;;;;;;;;;;;;;;;;;5090545;28;20361;-70
2023/04/19 14:19:26;;;;;;;;;;;;;;;;;;5089954;28;19915;-68
2023/04/19 14:21:52;;;;;;;;;;;;;;;;;;5090366;28;19951;-69
2023/04/19 14:24:18;;;;;;;;;;;;;;;;;;5089887;28;19948;-68
2023/04/19 14:26:44;;;;;;;;;;;;;;;;;;5089831;28;19921;-68
2023/04/19 14:29:10;;;;;;;;;;;;;;;;;;5090439;28;19912;-69
2023/04/19 14:31:36;;;;;;;;;;;;;;;;;;5089731;28;20342;-68
2023/04/19 14:34:02;;;;;;;;;;;;;;;;;;5089571;28;19912;-68
2023/04/19 14:36:28;;;;;;;;;;;;;;;;;;5089950;28;20352;-68
2023/04/19 14:38:54;;;;;;;;;;;;;;;;;;5078924;28;20387;-68
2023/04/19 14:41:20;;;;;;;;;;;;;;;;;;5076480;28;19908;-67
2023/04/19 14:43:46;;;;;;;;;;;;;;;;;;5076559;28;19909;-67
2023/04/19 14:46:12;;;;;;;;;;;;;;;;;;5076303;28;19913;-67
2023/04/19 14:48:38;;;;;;;;;;;;;;;;;;5076253;28;20401;-67
2023/04/19 14:51:04;;;;;;;;;;;;;;;;;;5076220;28;19970;-69
2023/04/19 14:53:30;;;;;;;;;;;;;;;;;;5074608;28;19908;-69
2023/04/19 14:55:56;;;;;;;;;;;;;;;;;;5076279;28;19914;-68
2023/04/19 15:00:12;;;;;;;;;;;;;;;;;;5070758;28;19923;-68
2023/04/19 15:03:35;;;;;;;;;;;;;;;;;;5152942;27;19922;-68
2023/04/19 15:06:44;;;;;;;;;;;;;;;;;;5091544;27;19920;-69
2023/04/19 15:09:09;;;;;;;;;;;;;;;;;;5091256;28;19974;-69
2023/04/19 15:11:35;;;;;;;;;;;;;;;;;;5091213;28;20352;-68
2023/04/19 15:15:50;;;;;;;;;;;;;;;;;;5111471;27;20303;-69
2023/04/19 15:18:53;;;;;;;;;;;;;;;;;;5091839;27;19923;-68
2023/04/19 15:21:19;;;;;;;;;;;;;;;;;;5091051;28;19912;-68
2023/04/19 15:23:45;;;;;;;;;;;;;;;;;;5091145;28;19909;-68
2023/04/19 15:26:12;;;;;;;;;;;;;;;;;;5091112;28;19932;-68
2023/04/19 15:28:38;;;;;;;;;;;;;;;;;;5090646;28;19919;-68
2023/04/19 15:31:04;;;;;;;;;;;;;;;;;;5089827;28;19912;-70
2023/04/19 15:37:42;;;;;;;;;;;;;;;;;;5091587;27;20304;-69
2023/04/19 15:40:08;;;;;;;;;;;;;;;;;;5091902;28;19912;-68
2023/04/19 15:44:04;;;;;;;;;;;;;;;;;;5091266;27;19918;-69
2023/04/19 15:46:30;;;;;;;;;;;;;;;;;;5089812;28;20007;-69
2023/04/19 15:48:57;;;;;;;;;;;;;;;;;;5089756;28;20680;-69
2023/04/19 15:51:23;;;;;;;;;;;;;;;;;;5091223;28;19923;-69
2023/04/19 15:54:29;;;;;;;;;;;;;;;;;;5091167;27;19923;-69
2023/04/19 15:56:56;;;;;;;;;;;;;;;;;;5089505;28;19919;-69
2023/04/19 16:00:22;;;;;;;;;;;;;;;;;;5091401;27;19916;-68
2023/04/19 16:02:47;;;;;;;;;;;;;;;;;;5090860;28;19912;-68
2023/04/19 16:07:26;;;;;;;;;;;;;;;;;;5153389;27;20006;-68
2023/04/19 16:17:52;;;;;;;;;;;;;;;;;;5152719;27;19915;-70
2023/04/19 16:20:19;;;;;;;;;;;;;;;;;;5152960;27;19919;-70
2023/04/19 16:24:16;;;;;;;;;;;;;;;;;;5091139;27;19922;-69
2023/04/19 16:31:54;;;;;;;;;;;;;;;;;;5091317;28;19922;-68
2023/04/19 16:34:20;;;;;;;;;;;;;;;;;;5091237;28;19952;-68
2023/04/19 16:36:46;;;;;;;;;;;;;;;;;;5091062;28;19908;-69
2023/04/19 16:39:12;;;;;;;;;;;;;;;;;;5090705;28;19961;-69
2023/04/19 16:43:09;;;;;;;;;;;;;;;;;;5092017;27;20390;-69
2023/04/19 16:48:15;;;;;;;;;;;;;;;;;;5153040;27;19934;-68
2023/04/19 16:50:41;;;;;;;;;;;;;;;;;;5152828;27;20419;-69
2023/04/19 16:53:07;;;;;;;;;;;;;;;;;;5152619;27;19907;-69
2023/04/19 16:55:33;;;;;;;;;;;;;;;;;;5152673;27;19975;-69
2023/04/19 16:59:51;;;;;;;;;;;;;;;;;;5091022;27;19923;-69
2023/04/19 17:04:32;;;;;;;;;;;;;;;;;;5153474;27;20006;-69
2023/04/19 17:06:58;;;;;;;;;;;;;;;;;;5152369;27;19912;-69
2023/04/19 17:09:24;;;;;;;;;;;;;;;;;;5152733;27;20236;-69
2023/04/19 17:11:50;;;;;;;;;;;;;;;;;;5134280;27;19947;-68
2023/04/19 17:14:16;;;;;;;;;;;;;;;;;;5152184;27;19908;-69
2023/04/19 17:22:40;;;;;;;;;;;;;;;;;;5092192;27;19916;-70
2023/04/19 17:26:30;;;;;;;;;;;;;;;;;;5091825;27;20376;-69
2023/04/19 17:28:56;;;;;;;;;;;;;;;;;;5090946;28;20003;-69
2023/04/19 17:35:28;;;;;;;;;;;;;;;;;;5091301;27;19923;-69
2023/04/19 17:37:54;;;;;;;;;;;;;;;;;;5091614;28;19913;-68
2023/04/19 17:40:20;;;;;;;;;;;;;;;;;;5091452;28;19954;-68
2023/04/19 17:44:46;;;;;;;;;;;;;;;;;;5091686;27;20303;-68
2023/04/19 17:47:12;;;;;;;;;;;;;;;;;;5091432;28;19919;-69
2023/04/19 17:49:37;;;;;;;;;;;;;;;;;;5090722;28;19908;-70
2023/04/19 17:52:03;;;;;;;;;;;;;;;;;;5091180;28;19909;-68
2023/04/19 17:54:29;;;;;;;;;;;;;;;;;;5091161;28;19926;-69
2023/04/19 17:56:58;;;;;;;;;;;;;;;;;;5090690;28;19913;-69
2023/04/19 17:59:24;;;;;;;;;;;;;;;;;;5091070;28;19909;-68
2023/04/19 18:01:50;;;;;;;;;;;;;;;;;;5091006;28;19908;-68
2023/04/19 18:04:18;;;;;;;;;;;;;;;;;;5090363;28;20510;-70
2023/04/19 18:06:44;;;;;;;;;;;;;;;;;;5090923;28;20369;-69
2023/04/19 18:09:11;;;;;;;;;;;;;;;;;;5090897;28;19909;-68
2023/04/19 18:11:37;;;;;;;;;;;;;;;;;;5090487;28;19908;-68
2023/04/19 18:14:04;;;;;;;;;;;;;;;;;;5090728;28;19967;-67
2023/04/19 18:16:30;;;;;;;;;;;;;;;;;;5090357;28;19908;-68
2023/04/19 18:18:56;;;;;;;;;;;;;;;;;;5089309;28;20369;-67
2023/04/19 18:21:21;;;;;;;;;;;;;;;;;;5089147;28;20340;-69
2023/04/19 18:23:47;;;;;;;;;;;;;;;;;;5089710;28;20361;-67
2023/04/19 18:26:13;;;;;;;;;;;;;;;;;;5090094;28;20368;-68
2023/04/19 18:28:39;;;;;;;;;;;;;;;;;;5089945;28;20379;-67
2023/04/19 18:31:05;;;;;;;;;;;;;;;;;;5089535;28;19965;-69
2023/04/19 18:33:31;;;;;;;;;;;;;;;;;;5089242;28;20003;-68
2023/04/19 18:35:57;;;;;;;;;;;;;;;;;;5090359;28;19916;-69
2023/04/19 18:38:23;;;;;;;;;;;;;;;;;;5088679;28;19946;-69
2023/04/19 18:40:49;;;;;;;;;;;;;;;;;;5090291;28;19908;-69